< < Back
Terminal Aerodrome Forecast


Current Version              Previous Versions:   1  2  3  4  5  6  7  8  9  

Terminal Aerodrome Forecast

690
FTUS44 KMOB 200500 RRA
TAFMOB
TAF
KMOB 200544Z 2006/2106 06004KT P6SM FEW040
     FM201500 06011KT P6SM SCT040=



Latest METAR

196
SAUS80 KWBC 202200 CCA
MTRMOB
METAR KMOB 202156Z 05005KT 10SM SCT038 28/20 A2996 RMK AO2 SLP144
T02830200


USA.gov is the U.S. government's official web portal to all federal, state and local government web resources and services.